createdAt,value
2017-05-19T00:02:19.410Z,9.84
2017-05-19T00:04:47.655Z,9.75
2017-05-19T00:07:15.849Z,9.72
2017-05-19T00:09:44.058Z,10.52
2017-05-19T00:12:12.278Z,10.65
2017-05-19T00:14:40.480Z,10.58
2017-05-19T00:17:08.706Z,11.00
2017-05-19T00:19:36.915Z,10.47
2017-05-19T00:22:05.129Z,10.57
2017-05-19T00:24:33.339Z,10.54
2017-05-19T00:27:01.547Z,9.97
2017-05-19T00:29:29.783Z,10.28
2017-05-19T00:31:57.990Z,9.87
2017-05-19T00:34:26.195Z,10.23
2017-05-19T00:36:54.400Z,10.25
2017-05-19T00:39:22.602Z,10.07
2017-05-19T00:41:50.838Z,10.12
2017-05-19T00:44:19.056Z,10.35
2017-05-19T00:46:46.492Z,9.82
2017-05-19T00:49:14.700Z,10.45
2017-05-19T00:51:42.899Z,11.25
2017-05-19T00:54:11.397Z,10.93
2017-05-19T00:56:39.600Z,9.57
2017-05-19T00:59:07.048Z,10.40
2017-05-19T01:01:35.255Z,10.27
2017-05-19T01:04:03.467Z,10.37
2017-05-19T01:06:31.687Z,10.82
2017-05-19T01:08:59.895Z,12.45
2017-05-19T01:11:28.099Z,12.06
2017-05-19T01:13:56.325Z,15.57
2017-05-19T01:16:24.520Z,14.83
2017-05-19T01:18:52.761Z,16.42
2017-05-19T01:21:20.960Z,15.33
2017-05-19T01:23:49.215Z,14.83
2017-05-19T01:26:17.417Z,17.80
2017-05-19T01:28:45.666Z,20.20
2017-05-19T01:31:13.913Z,18.12
2017-05-19T01:33:42.116Z,21.22
2017-05-19T01:36:10.327Z,26.82
2017-05-19T01:38:38.527Z,25.75
2017-05-19T01:41:06.722Z,26.15
2017-05-19T01:43:34.939Z,26.88
2017-05-19T01:46:03.138Z,27.15
2017-05-19T01:48:31.344Z,28.12
2017-05-19T01:50:59.567Z,28.80
2017-05-19T01:53:27.780Z,28.08
2017-05-19T01:55:56.002Z,28.32
2017-05-19T01:58:24.219Z,29.03
2017-05-19T02:00:52.421Z,28.83
2017-05-19T02:03:20.642Z,30.05
2017-05-19T02:05:48.847Z,29.18
2017-05-19T02:08:17.074Z,30.17
2017-05-19T02:10:45.294Z,31.70
2017-05-19T02:13:13.508Z,32.77
2017-05-19T02:15:41.725Z,33.22
2017-05-19T02:18:09.922Z,31.20
2017-05-19T02:20:38.164Z,33.40
2017-05-19T02:23:06.368Z,31.77
2017-05-19T02:25:34.580Z,31.22
2017-05-19T02:28:02.839Z,30.53
2017-05-19T02:30:31.052Z,30.35
2017-05-19T02:32:59.294Z,31.33
2017-05-19T02:35:27.502Z,31.48
2017-05-19T02:37:55.714Z,32.47
2017-05-19T02:40:23.921Z,32.52
2017-05-19T02:42:52.140Z,30.00
2017-05-19T02:45:20.358Z,31.38
2017-05-19T02:47:48.559Z,32.18
2017-05-19T02:50:16.772Z,32.80
2017-05-19T02:52:45.006Z,32.08
2017-05-19T02:55:13.198Z,32.42
2017-05-19T02:57:41.435Z,31.70
2017-05-19T03:00:09.651Z,30.02
2017-05-19T03:02:38.117Z,28.74
2017-05-19T03:05:06.319Z,29.82
2017-05-19T03:07:34.512Z,29.90
2017-05-19T03:10:02.738Z,30.38
2017-05-19T03:12:30.948Z,30.70
2017-05-19T03:14:59.157Z,28.87
2017-05-19T03:17:27.374Z,27.13
2017-05-19T03:19:55.583Z,27.43
2017-05-19T03:22:23.792Z,28.15
2017-05-19T03:24:52.000Z,27.93
2017-05-19T03:27:20.206Z,26.88
2017-05-19T03:29:48.434Z,26.56
2017-05-19T03:32:16.644Z,25.43
2017-05-19T03:34:44.876Z,24.95
2017-05-19T03:37:13.078Z,24.60
2017-05-19T03:39:41.283Z,24.72
2017-05-19T03:42:09.511Z,23.38
2017-05-19T03:44:37.714Z,24.22
2017-05-19T03:47:05.915Z,23.62
2017-05-19T03:49:34.131Z,23.90
2017-05-19T03:52:02.339Z,21.82
2017-05-19T03:54:30.571Z,21.75
2017-05-19T03:56:58.787Z,22.80
2017-05-19T03:59:26.993Z,23.10
2017-05-19T04:01:55.203Z,22.03
2017-05-19T04:04:23.407Z,22.18
2017-05-19T04:06:51.639Z,20.95
2017-05-19T04:09:19.836Z,21.83
2017-05-19T04:11:48.043Z,20.90
2017-05-19T04:14:16.267Z,21.70
2017-05-19T04:16:44.470Z,21.98
2017-05-19T04:19:12.679Z,21.83
2017-05-19T04:21:40.945Z,21.17
2017-05-19T04:24:09.195Z,22.50
2017-05-19T04:26:37.445Z,22.88
2017-05-19T04:29:05.650Z,23.14
2017-05-19T04:31:33.870Z,22.70
2017-05-19T04:34:02.093Z,21.80
2017-05-19T04:36:30.296Z,21.43
2017-05-19T04:38:58.519Z,22.78
2017-05-19T04:41:25.963Z,21.68
2017-05-19T04:43:54.176Z,21.58
2017-05-19T04:46:22.385Z,21.62
2017-05-19T04:48:50.618Z,23.90
2017-05-19T04:51:18.836Z,22.22
2017-05-19T04:53:47.048Z,23.90
2017-05-19T04:56:14.489Z,22.50
2017-05-19T04:58:42.702Z,23.73
2017-05-19T05:01:10.910Z,23.75
2017-05-19T05:03:39.140Z,25.92
2017-05-19T05:06:07.362Z,26.23
2017-05-19T05:08:35.563Z,24.32
2017-05-19T05:11:03.771Z,24.83
2017-05-19T05:13:32.009Z,23.58
2017-05-19T05:16:00.250Z,23.80
2017-05-19T05:18:28.458Z,24.06
2017-05-19T05:20:55.928Z,24.65
2017-05-19T05:23:23.371Z,21.07
2017-05-19T05:25:50.821Z,21.42
2017-05-19T05:28:18.280Z,24.32
2017-05-19T05:30:45.729Z,24.43
2017-05-19T05:33:13.183Z,22.88
2017-05-19T05:35:41.395Z,24.75
2017-05-19T05:38:09.609Z,25.60
2017-05-19T05:40:37.095Z,25.10
2017-05-19T05:43:05.300Z,23.82
2017-05-19T05:45:33.527Z,22.23
2017-05-19T05:48:01.740Z,22.47
2017-05-19T05:50:29.974Z,23.52
2017-05-19T05:52:58.183Z,25.73
2017-05-19T05:55:26.391Z,26.62
2017-05-19T05:57:54.603Z,25.52
2017-05-19T06:00:22.827Z,23.88
2017-05-19T06:02:51.069Z,25.82
2017-05-19T06:05:19.291Z,24.40
2017-05-19T06:07:47.517Z,26.67
2017-05-19T06:10:15.792Z,23.85
2017-05-19T06:12:44.059Z,24.35
2017-05-19T06:15:12.274Z,28.12
2017-05-19T06:17:40.518Z,27.96
2017-05-19T06:20:08.732Z,26.20
2017-05-19T06:22:36.928Z,28.60
2017-05-19T06:25:05.190Z,29.57
2017-05-19T06:27:33.404Z,27.03
2017-05-19T06:30:01.639Z,28.53
2017-05-19T06:32:29.843Z,31.10
2017-05-19T06:34:58.065Z,29.18
2017-05-19T06:37:26.290Z,29.45
2017-05-19T06:39:54.607Z,25.00
2017-05-19T06:42:22.826Z,27.37
2017-05-19T06:44:51.056Z,27.75
2017-05-19T06:47:19.255Z,28.38
2017-05-19T06:49:47.507Z,29.00
2017-05-19T06:52:15.714Z,28.95
2017-05-19T06:54:43.995Z,30.62
2017-05-19T06:57:12.234Z,29.12
2017-05-19T06:59:40.451Z,31.60
2017-05-19T07:02:08.679Z,30.02
2017-05-19T07:04:36.894Z,31.08
2017-05-19T07:07:05.159Z,29.90
2017-05-19T07:09:33.355Z,26.98
2017-05-19T07:12:01.615Z,30.42
2017-05-19T07:14:29.852Z,29.80
2017-05-19T07:16:58.068Z,29.34
2017-05-19T07:19:26.328Z,32.18
2017-05-19T07:21:54.523Z,32.20
2017-05-19T07:24:58.648Z,31.85
2017-05-19T07:27:26.955Z,30.08
2017-05-19T07:29:55.164Z,31.76
2017-05-19T07:32:23.415Z,31.73
2017-05-19T07:34:51.647Z,30.38
2017-05-19T07:37:19.904Z,30.35
2017-05-19T07:39:48.573Z,33.08
2017-05-19T07:42:16.785Z,32.40
2017-05-19T07:44:45.004Z,31.82
2017-05-19T07:47:13.241Z,31.26
2017-05-19T07:49:41.526Z,31.95
2017-05-19T07:52:09.786Z,30.37
2017-05-19T07:54:38.058Z,30.45
2017-05-19T07:57:06.295Z,32.42
2017-05-19T07:59:34.528Z,29.30
2017-05-19T08:02:02.761Z,32.63
2017-05-19T08:04:30.979Z,32.15
2017-05-19T08:06:59.192Z,31.26
2017-05-19T08:09:27.512Z,31.47
2017-05-19T08:11:55.750Z,31.88
2017-05-19T08:14:23.955Z,33.50
2017-05-19T08:16:52.239Z,32.27
2017-05-19T08:19:20.479Z,32.67
2017-05-19T08:21:48.802Z,31.82
2017-05-19T08:24:17.039Z,33.87
2017-05-19T08:26:45.245Z,33.34
2017-05-19T08:29:13.463Z,34.40
2017-05-19T08:31:41.707Z,33.65
2017-05-19T08:34:09.922Z,33.58
2017-05-19T08:36:38.141Z,32.50
2017-05-19T08:39:06.571Z,32.83
2017-05-19T08:41:34.774Z,33.10
2017-05-19T08:44:03.020Z,33.87
2017-05-19T08:46:31.328Z,31.42
2017-05-19T08:48:59.545Z,31.62
2017-05-19T08:51:27.784Z,31.35
2017-05-19T08:53:56.025Z,29.48
2017-05-19T08:56:24.244Z,26.77
2017-05-19T08:58:52.470Z,27.05
2017-05-19T09:01:20.724Z,25.00
2017-05-19T09:03:48.978Z,25.02
2017-05-19T09:06:17.203Z,25.40
2017-05-19T09:08:45.496Z,25.00
2017-05-19T09:11:13.758Z,25.68
2017-05-19T09:13:42.082Z,24.17
2017-05-19T09:16:10.350Z,24.53
2017-05-19T09:18:38.568Z,23.78
2017-05-19T09:21:06.771Z,23.30
2017-05-19T09:23:35.071Z,23.58
2017-05-19T09:26:03.314Z,23.14
2017-05-19T09:28:31.602Z,22.68
2017-05-19T09:30:59.847Z,21.27
2017-05-19T09:33:28.148Z,21.22
2017-05-19T09:35:56.479Z,21.80
2017-05-19T09:38:24.873Z,21.08
2017-05-19T09:40:53.197Z,24.00
2017-05-19T09:43:21.447Z,21.58
2017-05-19T09:45:49.744Z,20.93
2017-05-19T09:48:17.269Z,20.23
2017-05-19T09:50:45.534Z,22.18
2017-05-19T09:53:13.794Z,23.17
2017-05-19T09:55:42.013Z,22.43
2017-05-19T09:58:10.218Z,22.76
2017-05-19T10:00:38.443Z,23.67
2017-05-19T10:03:06.658Z,23.90
2017-05-19T10:05:34.907Z,25.13
2017-05-19T10:08:03.183Z,25.63
2017-05-19T10:10:31.440Z,26.15
2017-05-19T10:12:59.681Z,26.17
2017-05-19T10:15:27.912Z,25.24
2017-05-19T10:17:56.197Z,24.87
2017-05-19T10:20:24.418Z,23.45
2017-05-19T10:22:52.668Z,23.90
2017-05-19T10:25:20.903Z,24.07
2017-05-19T10:27:49.126Z,25.52
2017-05-19T10:30:17.560Z,24.45
2017-05-19T10:32:46.036Z,24.80
2017-05-19T10:35:14.289Z,24.30
2017-05-19T10:37:42.598Z,25.57
2017-05-19T10:40:10.883Z,24.23
2017-05-19T10:42:39.102Z,25.00
2017-05-19T10:45:07.524Z,25.62
2017-05-19T10:47:35.806Z,25.52
2017-05-19T10:50:04.043Z,24.65
2017-05-19T10:52:32.355Z,27.07
2017-05-19T10:55:00.631Z,25.67
2017-05-19T10:57:28.839Z,26.22
2017-05-19T10:59:57.086Z,27.32
2017-05-19T11:02:25.370Z,24.53
2017-05-19T11:04:53.651Z,26.92
2017-05-19T11:07:21.899Z,25.53
2017-05-19T11:09:50.119Z,25.82
2017-05-19T11:12:18.357Z,25.55
2017-05-19T11:14:46.771Z,26.27
2017-05-19T11:17:15.179Z,26.90
2017-05-19T11:19:43.379Z,28.37
2017-05-19T11:22:11.655Z,26.62
2017-05-19T11:24:39.911Z,28.13
2017-05-19T11:27:08.239Z,27.05
2017-05-19T11:29:36.595Z,27.26
2017-05-19T11:32:04.920Z,26.65
2017-05-19T11:34:33.175Z,24.22
2017-05-19T11:37:01.507Z,24.44
2017-05-19T11:39:29.832Z,27.18
2017-05-19T11:41:58.035Z,24.48
2017-05-19T11:44:26.304Z,25.18
2017-05-19T11:46:54.507Z,25.75
2017-05-19T11:49:22.723Z,25.07
2017-05-19T11:51:51.055Z,26.20
2017-05-19T11:54:19.283Z,24.75
2017-05-19T11:56:47.510Z,26.15
2017-05-19T11:59:15.739Z,29.35
2017-05-19T12:01:43.951Z,28.15
2017-05-19T12:04:12.244Z,26.45
2017-05-19T12:06:40.508Z,25.57
2017-05-19T12:09:08.723Z,26.50
2017-05-19T12:11:40.918Z,25.35
2017-05-19T12:14:09.191Z,25.15
2017-05-19T12:16:37.547Z,24.78
2017-05-19T12:19:05.799Z,22.62
2017-05-19T12:21:34.057Z,25.02
2017-05-19T12:24:02.323Z,24.65
2017-05-19T12:26:30.565Z,26.58
2017-05-19T12:28:58.793Z,27.32
2017-05-19T12:31:26.999Z,28.15
2017-05-19T12:33:55.327Z,27.14
2017-05-19T12:36:23.580Z,25.12
2017-05-19T12:38:51.047Z,26.85
2017-05-19T12:41:19.355Z,25.15
2017-05-19T12:43:47.714Z,23.32
2017-05-19T12:46:16.193Z,24.12
2017-05-19T12:48:44.583Z,25.45
2017-05-19T12:51:12.895Z,27.18
2017-05-19T12:53:41.328Z,26.58
2017-05-19T12:56:09.546Z,24.80
2017-05-19T12:58:37.780Z,23.96
2017-05-19T13:01:06.048Z,25.83
2017-05-19T13:03:34.356Z,27.97
2017-05-19T13:06:02.614Z,31.58
2017-05-19T13:08:30.886Z,29.68
2017-05-19T13:10:59.124Z,29.63
2017-05-19T13:13:27.434Z,28.18
2017-05-19T13:15:55.694Z,27.25
2017-05-19T13:18:23.899Z,27.57
2017-05-19T13:20:52.174Z,26.93
2017-05-19T13:23:20.399Z,26.27
2017-05-19T13:25:48.612Z,26.28
2017-05-19T13:28:16.106Z,25.13
2017-05-19T13:30:44.330Z,25.05
2017-05-19T13:33:12.631Z,26.40
2017-05-19T13:35:40.878Z,27.43
2017-05-19T13:38:09.128Z,27.20
2017-05-19T13:40:37.419Z,26.40
2017-05-19T13:43:05.639Z,28.05
2017-05-19T13:45:33.870Z,26.05
2017-05-19T13:48:02.177Z,28.20
2017-05-19T13:50:30.603Z,30.33
2017-05-19T13:52:59.227Z,30.62
2017-05-19T13:55:27.463Z,27.80
2017-05-19T13:57:55.676Z,30.17
2017-05-19T14:00:23.908Z,32.48
2017-05-19T14:02:52.224Z,30.77
2017-05-19T14:05:20.479Z,30.18
2017-05-19T14:07:48.797Z,27.92
2017-05-19T14:10:17.011Z,29.62
2017-05-19T14:12:45.423Z,29.40
2017-05-19T14:15:13.655Z,28.38
2017-05-19T14:17:41.972Z,28.34
2017-05-19T14:20:10.318Z,27.22
2017-05-19T14:22:38.626Z,27.45
2017-05-19T14:25:06.857Z,29.77
2017-05-19T14:27:35.079Z,28.47
2017-05-19T14:30:03.456Z,27.93
2017-05-19T14:32:31.729Z,29.86
2017-05-19T14:34:59.948Z,28.85
2017-05-19T14:37:28.174Z,30.13
2017-05-19T14:39:56.391Z,29.55
2017-05-19T14:42:24.639Z,29.10
2017-05-19T14:44:52.857Z,30.88
2017-05-19T14:47:21.076Z,29.33
2017-05-19T14:49:49.372Z,31.78
2017-05-19T14:52:17.626Z,31.28
2017-05-19T14:54:45.879Z,32.35
2017-05-19T14:57:14.099Z,31.88
2017-05-19T14:59:42.325Z,33.18
2017-05-19T15:02:10.627Z,33.58
2017-05-19T15:04:38.860Z,34.85
2017-05-19T15:07:07.144Z,33.58
2017-05-19T15:09:35.480Z,32.65
2017-05-19T15:12:03.730Z,32.58
2017-05-19T15:14:32.003Z,34.12
2017-05-19T15:17:00.271Z,33.25
2017-05-19T15:19:28.547Z,34.52
2017-05-19T15:21:56.904Z,35.94
2017-05-19T15:24:25.116Z,36.85
2017-05-19T15:26:53.368Z,36.92
2017-05-19T15:29:21.651Z,36.24
2017-05-19T15:31:49.930Z,36.85
2017-05-19T15:34:18.131Z,32.53
2017-05-19T15:36:46.379Z,34.00
2017-05-19T15:39:14.665Z,33.62
2017-05-19T15:41:43.103Z,32.17
2017-05-19T15:44:11.339Z,32.23
2017-05-19T15:46:39.567Z,33.30
2017-05-19T15:49:07.801Z,33.53
2017-05-19T15:51:36.026Z,31.95
2017-05-19T15:54:04.283Z,34.88
2017-05-19T15:56:32.524Z,33.57
2017-05-19T15:59:00.748Z,34.60
2017-05-19T16:01:28.992Z,33.60
2017-05-19T16:03:57.239Z,34.60
2017-05-19T16:06:25.475Z,34.70
2017-05-19T16:08:53.781Z,32.98
2017-05-19T16:11:21.999Z,31.83
2017-05-19T16:13:50.212Z,34.35
2017-05-19T16:16:18.446Z,32.78
2017-05-19T16:18:46.663Z,34.10
2017-05-19T16:21:14.906Z,30.90
2017-05-19T16:23:43.121Z,32.38
2017-05-19T16:26:11.387Z,31.83
2017-05-19T16:28:39.648Z,33.20
2017-05-19T16:31:07.879Z,32.48
2017-05-19T16:33:36.142Z,30.67
2017-05-19T16:36:04.361Z,32.77
2017-05-19T16:38:32.705Z,31.38
2017-05-19T16:41:01.024Z,31.43
2017-05-19T16:43:29.247Z,33.58
2017-05-19T16:45:57.487Z,35.42
2017-05-19T16:48:25.711Z,35.22
2017-05-19T16:50:53.919Z,39.13
2017-05-19T16:53:22.279Z,37.75
2017-05-19T16:55:50.619Z,39.57
2017-05-19T16:58:18.889Z,39.03
2017-05-19T17:00:47.106Z,38.20
2017-05-19T17:03:15.330Z,38.68
2017-05-19T17:05:43.574Z,36.87
2017-05-19T17:08:11.854Z,35.90
2017-05-19T17:10:40.080Z,36.02
2017-05-19T17:13:08.375Z,35.48
2017-05-19T17:15:36.596Z,32.83
2017-05-19T17:18:04.943Z,34.05
2017-05-19T17:20:33.166Z,32.72
2017-05-19T17:23:01.436Z,33.25
2017-05-19T17:25:29.656Z,31.03
2017-05-19T17:27:57.964Z,31.48
2017-05-19T17:30:26.243Z,31.80
2017-05-19T17:32:54.495Z,31.35
2017-05-19T17:35:22.775Z,29.78
2017-05-19T17:37:51.002Z,31.43
2017-05-19T17:40:19.234Z,28.80
2017-05-19T17:42:47.501Z,31.35
2017-05-19T17:45:15.760Z,29.92
2017-05-19T17:47:44.020Z,29.64
2017-05-19T17:50:12.345Z,29.48
2017-05-19T17:52:40.558Z,27.13
2017-05-19T17:55:08.868Z,28.45
2017-05-19T17:57:37.161Z,28.32
2017-05-19T18:00:05.392Z,27.05
2017-05-19T18:02:33.705Z,25.78
2017-05-19T18:05:01.920Z,25.67
2017-05-19T18:07:30.151Z,24.00
2017-05-19T18:09:58.438Z,23.58
2017-05-19T18:12:26.726Z,24.88
2017-05-19T18:14:54.998Z,24.26
2017-05-19T18:17:23.337Z,21.88
2017-05-19T18:19:51.554Z,21.40
2017-05-19T18:22:19.762Z,21.50
2017-05-19T18:24:48.155Z,20.00
2017-05-19T18:27:16.733Z,18.52
2017-05-19T18:29:45.055Z,19.45
2017-05-19T18:32:13.324Z,16.87
2017-05-19T18:34:41.534Z,19.10
2017-05-19T18:37:09.795Z,18.83
2017-05-19T18:39:38.018Z,18.12
2017-05-19T18:42:06.238Z,18.52
2017-05-19T18:44:34.491Z,18.88
2017-05-19T18:47:02.712Z,18.03
2017-05-19T18:49:31.247Z,18.43
2017-05-19T18:51:59.534Z,20.80
2017-05-19T18:54:27.791Z,21.83
2017-05-19T18:56:56.035Z,21.55
2017-05-19T18:59:24.348Z,22.98
2017-05-19T19:01:52.595Z,24.15
2017-05-19T19:04:20.894Z,25.52
2017-05-19T19:06:49.126Z,26.97
2017-05-19T19:09:17.348Z,28.02
2017-05-19T19:11:45.610Z,26.77
2017-05-19T19:14:13.831Z,28.82
2017-05-19T19:16:42.047Z,28.87
2017-05-19T19:19:10.344Z,28.90
2017-05-19T19:21:38.580Z,31.75
2017-05-19T19:24:06.802Z,33.93
2017-05-19T19:26:35.085Z,35.80
2017-05-19T19:29:03.347Z,38.25
2017-05-19T19:31:31.592Z,33.15
2017-05-19T19:33:59.810Z,34.65
2017-05-19T19:36:28.086Z,34.78
2017-05-19T19:38:56.328Z,35.08
2017-05-19T19:41:24.631Z,37.13
2017-05-19T19:43:52.846Z,36.72
2017-05-19T19:46:21.159Z,35.33
2017-05-19T19:48:49.374Z,33.13
2017-05-19T19:51:17.771Z,32.57
2017-05-19T19:53:45.998Z,35.68
2017-05-19T19:56:14.263Z,33.58
2017-05-19T19:58:42.547Z,33.22
2017-05-19T20:01:10.767Z,33.37
2017-05-19T20:03:39.111Z,33.78
2017-05-19T20:06:07.383Z,34.05
2017-05-19T20:08:35.660Z,32.65
2017-05-19T20:11:03.915Z,34.98
2017-05-19T20:13:32.175Z,34.15
2017-05-19T20:16:00.614Z,35.78
2017-05-19T20:18:28.892Z,38.23
2017-05-19T20:20:57.150Z,38.77
2017-05-19T20:23:25.414Z,37.93
2017-05-19T20:25:53.732Z,36.00
2017-05-19T20:28:21.983Z,37.07
2017-05-19T20:30:50.279Z,34.47
2017-05-19T20:33:18.623Z,37.65
2017-05-19T20:35:47.018Z,38.68
2017-05-19T20:38:15.229Z,32.22
2017-05-19T20:40:43.496Z,33.20
2017-05-19T20:43:11.730Z,33.43
2017-05-19T20:45:40.017Z,34.30
2017-05-19T20:48:08.249Z,33.73
2017-05-19T20:50:36.480Z,36.75
2017-05-19T20:53:04.736Z,34.25
2017-05-19T20:55:32.955Z,37.70
2017-05-19T20:58:01.295Z,37.25
2017-05-19T21:00:29.565Z,39.55
2017-05-19T21:02:57.807Z,41.50
2017-05-19T21:05:26.065Z,41.40
2017-05-19T21:07:54.305Z,40.92
2017-05-19T21:10:22.527Z,40.35
2017-05-19T21:12:50.823Z,40.12
2017-05-19T21:15:19.152Z,38.52
2017-05-19T21:17:47.369Z,40.72
2017-05-19T21:20:15.586Z,38.25
2017-05-19T21:22:43.908Z,39.25
2017-05-19T21:25:12.156Z,38.13
2017-05-19T21:27:40.360Z,38.73
2017-05-19T21:30:08.743Z,33.02
2017-05-19T21:32:36.958Z,35.10
2017-05-19T21:35:05.185Z,35.78
2017-05-19T21:37:33.430Z,35.65
2017-05-19T21:40:01.644Z,37.67
2017-05-19T21:42:29.921Z,40.43
2017-05-19T21:44:58.138Z,39.28
2017-05-19T21:47:26.446Z,40.17
2017-05-19T21:49:54.706Z,39.65
2017-05-19T21:52:23.016Z,36.10
2017-05-19T21:54:51.276Z,37.55
2017-05-19T21:57:19.555Z,34.95
2017-05-19T21:59:47.767Z,34.44
2017-05-19T22:02:16.102Z,31.17
2017-05-19T22:04:44.325Z,32.05
2017-05-19T22:07:12.633Z,28.57
2017-05-19T22:09:40.847Z,28.13
2017-05-19T22:12:09.207Z,27.17
2017-05-19T22:14:37.447Z,22.72
2017-05-19T22:17:05.766Z,20.65
2017-05-19T22:19:33.975Z,23.22
2017-05-19T22:22:02.231Z,20.05
2017-05-19T22:24:30.479Z,22.03
2017-05-19T22:26:58.719Z,21.73
2017-05-19T22:29:26.949Z,21.62
2017-05-19T22:31:55.203Z,22.83
2017-05-19T22:34:23.582Z,22.42
2017-05-19T22:36:51.819Z,21.03
2017-05-19T22:39:20.108Z,20.88
2017-05-19T22:41:48.303Z,20.33
2017-05-19T22:44:16.514Z,21.40
2017-05-19T22:46:44.779Z,21.20
2017-05-19T22:49:13.000Z,21.47
2017-05-19T22:51:41.302Z,23.48
2017-05-19T22:54:09.519Z,22.82
2017-05-19T22:56:37.750Z,22.65
2017-05-19T22:59:05.983Z,22.87
2017-05-19T23:01:34.198Z,22.52
2017-05-19T23:04:02.431Z,22.67
2017-05-19T23:06:30.645Z,20.95
2017-05-19T23:08:58.858Z,20.12
2017-05-19T23:11:27.207Z,19.95
2017-05-19T23:13:55.480Z,20.23
2017-05-19T23:16:23.706Z,19.53
2017-05-19T23:18:51.926Z,20.22
2017-05-19T23:21:20.220Z,19.67
2017-05-19T23:23:48.484Z,19.07
2017-05-19T23:26:16.763Z,17.70
2017-05-19T23:28:45.033Z,18.27
2017-05-19T23:31:13.311Z,17.96
2017-05-19T23:33:41.533Z,18.67
2017-05-19T23:36:09.869Z,18.52
2017-05-19T23:38:38.231Z,18.62
2017-05-19T23:41:06.615Z,20.23
2017-05-19T23:43:34.851Z,20.20
2017-05-19T23:46:03.054Z,20.37
2017-05-19T23:48:31.336Z,20.85
2017-05-19T23:50:59.551Z,23.50
2017-05-19T23:53:27.878Z,21.90
2017-05-19T23:55:56.093Z,21.55
2017-05-19T23:58:24.310Z,21.88
